createdAt,value
2023-09-14T00:02:19.996Z,25.21
2023-09-14T00:04:48.547Z,23.83
2023-09-14T00:07:15.768Z,23.75
2023-09-14T00:09:42.868Z,23.63
2023-09-14T00:12:10.039Z,24.96
2023-09-14T00:14:38.132Z,24.14
2023-09-14T00:17:05.228Z,23.48
2023-09-14T00:19:32.302Z,22.78
2023-09-14T00:21:59.713Z,23.62
2023-09-14T00:24:26.915Z,22.67
2023-09-14T00:26:54.692Z,26.02
2023-09-14T00:29:22.768Z,25.62
2023-09-14T00:31:50.007Z,27.47
2023-09-14T00:34:19.206Z,24.21
2023-09-14T00:36:46.421Z,26.44
2023-09-14T00:39:13.758Z,25.74
2023-09-14T00:41:42.612Z,28.23
2023-09-14T00:44:10.046Z,26.96
2023-09-14T00:46:37.350Z,27.52
2023-09-14T00:49:05.886Z,28.31
2023-09-14T00:51:34.068Z,29.81
2023-09-14T00:54:01.618Z,30.58
2023-09-14T00:56:29.691Z,28.54
2023-09-14T00:59:00.071Z,29.24
2023-09-14T01:01:27.511Z,28.58
2023-09-14T01:03:54.905Z,27.83
2023-09-14T01:06:22.982Z,29.32
2023-09-14T01:08:50.885Z,29.14
2023-09-14T01:11:18.100Z,28.28
2023-09-14T01:14:10.446Z,28.00
2023-09-14T01:16:51.142Z,27.79
2023-09-14T01:19:47.562Z,28.55
2023-09-14T01:22:57.642Z,30.39
2023-09-14T01:25:47.161Z,32.51
2023-09-14T01:28:16.794Z,31.55
2023-09-14T01:30:43.921Z,30.60
2023-09-14T01:33:15.764Z,30.86
2023-09-14T01:35:51.475Z,28.27
2023-09-14T01:38:19.498Z,30.33
2023-09-14T01:40:49.734Z,30.79
2023-09-14T01:43:18.527Z,30.51
2023-09-14T01:45:47.252Z,30.65
2023-09-14T01:48:20.141Z,30.45
2023-09-14T01:50:47.991Z,32.63
2023-09-14T01:53:15.336Z,29.70
2023-09-14T01:55:42.856Z,28.10
2023-09-14T01:58:10.911Z,32.08
2023-09-14T02:00:38.400Z,31.26
2023-09-14T02:03:06.369Z,33.73
2023-09-14T02:05:33.562Z,33.10
2023-09-14T02:08:01.087Z,34.46
2023-09-14T02:10:28.150Z,36.57
2023-09-14T02:12:55.416Z,35.16
2023-09-14T02:15:23.211Z,34.76
2023-09-14T02:17:51.377Z,33.59
2023-09-14T02:20:21.381Z,30.89
2023-09-14T02:22:48.855Z,34.31
2023-09-14T02:25:16.030Z,35.57
2023-09-14T02:27:43.054Z,32.91
2023-09-14T02:30:11.001Z,33.05
2023-09-14T02:32:38.035Z,33.49
2023-09-14T02:35:05.973Z,32.11
2023-09-14T02:37:33.436Z,33.68
2023-09-14T02:40:00.540Z,33.55
2023-09-14T02:42:27.641Z,33.44
2023-09-14T02:44:54.739Z,33.85
2023-09-14T02:47:21.820Z,32.68
2023-09-14T02:49:48.889Z,34.50
2023-09-14T02:52:15.988Z,30.85
2023-09-14T02:54:43.007Z,32.92
2023-09-14T02:57:10.087Z,34.21
2023-09-14T02:59:37.164Z,30.59
2023-09-14T03:02:05.085Z,32.30
2023-09-14T03:04:32.475Z,31.21
2023-09-14T03:06:59.733Z,28.36
2023-09-14T03:09:29.304Z,30.57
2023-09-14T03:11:56.879Z,30.14
2023-09-14T03:14:23.963Z,29.81
2023-09-14T03:16:51.797Z,31.45
2023-09-14T03:19:19.276Z,32.70
2023-09-14T03:21:46.377Z,32.28
2023-09-14T03:24:14.204Z,33.96
2023-09-14T03:26:41.854Z,33.86
2023-09-14T03:29:09.161Z,31.48
2023-09-14T03:31:37.820Z,29.55
2023-09-14T03:34:08.802Z,31.90
2023-09-14T03:36:37.845Z,31.77
2023-09-14T03:39:07.067Z,31.57
2023-09-14T03:41:34.191Z,32.36
2023-09-14T03:44:02.156Z,31.77
2023-09-14T03:46:30.044Z,29.35
2023-09-14T03:48:57.268Z,30.68
2023-09-14T03:51:24.302Z,32.61
2023-09-14T03:53:52.552Z,30.55
2023-09-14T03:56:20.020Z,32.16
2023-09-14T03:58:47.330Z,30.26
2023-09-14T04:01:14.995Z,31.85
2023-09-14T04:03:42.396Z,33.53
2023-09-14T04:06:09.592Z,33.21
2023-09-14T04:08:36.755Z,33.27
2023-09-14T04:11:04.332Z,32.64
2023-09-14T04:13:34.061Z,33.80
2023-09-14T04:16:05.802Z,33.96
2023-09-14T04:18:38.755Z,32.87
2023-09-14T04:21:08.114Z,32.44
2023-09-14T04:23:35.282Z,32.71
2023-09-14T04:26:03.161Z,34.12
2023-09-14T04:28:30.603Z,33.62
2023-09-14T04:31:02.900Z,34.43
2023-09-14T04:33:32.644Z,33.60
2023-09-14T04:36:04.514Z,32.98
2023-09-14T04:38:34.516Z,31.87
2023-09-14T04:41:08.131Z,34.19
2023-09-14T04:43:36.511Z,37.05
2023-09-14T04:46:06.704Z,35.37
2023-09-14T04:48:34.653Z,35.69
2023-09-14T04:51:02.064Z,33.71
2023-09-14T04:53:29.396Z,34.57
2023-09-14T04:55:56.635Z,35.30
2023-09-14T04:58:26.424Z,35.61
2023-09-14T05:00:54.816Z,35.58
2023-09-14T05:03:22.388Z,37.79
2023-09-14T05:05:55.595Z,38.41
2023-09-14T05:08:23.895Z,35.62
2023-09-14T05:10:51.770Z,36.38
2023-09-14T05:13:22.175Z,38.60
2023-09-14T05:15:49.539Z,35.47
2023-09-14T05:18:16.682Z,37.00
2023-09-14T05:20:49.346Z,39.61
2023-09-14T05:23:17.341Z,38.33
2023-09-14T05:25:46.912Z,35.98
2023-09-14T05:28:16.428Z,37.60
2023-09-14T05:30:44.822Z,40.88
2023-09-14T05:33:12.202Z,41.94
2023-09-14T05:35:39.857Z,41.04
2023-09-14T05:38:06.876Z,41.35
2023-09-14T05:40:34.519Z,42.79
2023-09-14T05:43:01.982Z,42.40
2023-09-14T05:45:29.305Z,44.80
2023-09-14T05:47:57.308Z,44.52
2023-09-14T05:50:25.049Z,40.80
2023-09-14T05:52:52.070Z,41.92
2023-09-14T05:55:19.980Z,40.20
2023-09-14T05:57:47.304Z,40.90
2023-09-14T06:00:14.896Z,39.73
2023-09-14T06:02:43.646Z,39.91
2023-09-14T06:05:23.733Z,41.27
2023-09-14T06:07:54.309Z,40.28
2023-09-14T06:10:22.209Z,39.33
2023-09-14T06:12:51.900Z,39.79
2023-09-14T06:15:19.203Z,40.18
2023-09-14T06:17:48.841Z,44.51
2023-09-14T06:20:16.874Z,45.23
2023-09-14T06:22:44.821Z,44.19
2023-09-14T06:25:12.072Z,44.16
2023-09-14T06:27:40.627Z,44.23
2023-09-14T06:30:09.626Z,42.78
2023-09-14T06:32:37.937Z,41.80
2023-09-14T06:35:06.222Z,45.38
2023-09-14T06:37:33.246Z,46.05
2023-09-14T06:40:00.484Z,46.31
2023-09-14T06:42:27.544Z,46.66
2023-09-14T06:44:54.564Z,48.07
2023-09-14T06:47:21.613Z,46.25
2023-09-14T06:49:48.613Z,45.93
2023-09-14T06:52:15.701Z,46.87
2023-09-14T06:54:45.772Z,48.01
2023-09-14T06:57:12.895Z,47.46
2023-09-14T06:59:39.932Z,48.07
2023-09-14T07:02:07.625Z,48.97
2023-09-14T07:04:36.053Z,47.98
2023-09-14T07:07:03.305Z,49.14
2023-09-14T07:09:30.536Z,49.55
2023-09-14T07:11:57.605Z,51.01
2023-09-14T07:14:24.649Z,50.65
2023-09-14T07:16:52.102Z,49.66
2023-09-14T07:19:19.458Z,52.00
2023-09-14T07:21:46.539Z,53.49
2023-09-14T07:24:14.679Z,54.07
2023-09-14T07:26:41.864Z,53.50
2023-09-14T07:29:09.131Z,56.32
2023-09-14T07:31:36.666Z,52.53
2023-09-14T07:34:03.988Z,53.39
2023-09-14T07:36:31.073Z,56.42
2023-09-14T07:38:58.192Z,57.83
2023-09-14T07:41:27.079Z,56.42
2023-09-14T07:43:54.105Z,56.22
2023-09-14T07:46:21.252Z,56.59
2023-09-14T07:48:48.418Z,57.60
2023-09-14T07:51:15.444Z,55.80
2023-09-14T07:53:42.619Z,55.19
2023-09-14T07:56:09.707Z,56.68
2023-09-14T07:58:36.729Z,61.50
2023-09-14T08:01:03.914Z,56.18
2023-09-14T08:03:31.861Z,56.92
2023-09-14T08:05:59.145Z,58.05
2023-09-14T08:08:26.163Z,58.65
2023-09-14T08:10:55.419Z,61.00
2023-09-14T08:13:23.696Z,60.10
2023-09-14T08:15:50.794Z,60.45
2023-09-14T08:18:19.783Z,59.05
2023-09-14T08:20:48.271Z,63.19
2023-09-14T08:23:19.358Z,61.54
2023-09-14T08:25:47.784Z,61.58
2023-09-14T08:28:17.962Z,59.91
2023-09-14T08:30:47.073Z,62.61
2023-09-14T08:33:16.333Z,58.52
2023-09-14T08:35:48.981Z,62.60
2023-09-14T08:38:17.109Z,65.07
2023-09-14T08:40:48.005Z,64.28
2023-09-14T08:43:15.592Z,61.51
2023-09-14T08:45:43.626Z,62.78
2023-09-14T08:48:15.099Z,64.70
2023-09-14T08:50:45.796Z,63.57
2023-09-14T08:53:15.935Z,62.69
2023-09-14T08:55:45.295Z,63.38
2023-09-14T08:58:14.562Z,64.06
2023-09-14T09:00:43.151Z,62.57
2023-09-14T09:03:10.204Z,62.57
2023-09-14T09:05:37.786Z,62.59
2023-09-14T09:08:06.358Z,61.44
2023-09-14T09:10:33.517Z,62.77
2023-09-14T09:13:04.129Z,60.85
2023-09-14T09:15:38.340Z,61.90
2023-09-14T09:18:13.774Z,67.94
2023-09-14T09:20:45.932Z,60.38
2023-09-14T09:23:17.554Z,64.55
2023-09-14T09:25:53.083Z,60.40
2023-09-14T09:28:29.173Z,60.45
2023-09-14T09:30:56.379Z,63.20
2023-09-14T09:33:39.425Z,62.50
2023-09-14T09:36:18.466Z,63.04
2023-09-14T09:38:49.580Z,63.41
2023-09-14T09:41:17.682Z,62.13
2023-09-14T09:43:46.525Z,61.88
2023-09-14T09:46:19.027Z,60.11
2023-09-14T09:48:46.637Z,61.14
2023-09-14T09:51:14.364Z,59.52
2023-09-14T09:54:08.894Z,63.16
2023-09-14T09:56:40.121Z,59.63
2023-09-14T09:59:09.979Z,60.97
2023-09-14T10:01:39.622Z,61.97
2023-09-14T10:04:11.580Z,57.31
2023-09-14T10:06:39.973Z,56.80
2023-09-14T10:09:13.312Z,58.58
2023-09-14T10:11:42.565Z,60.02
2023-09-14T10:14:15.012Z,58.13
2023-09-14T10:16:45.765Z,56.45
2023-09-14T10:19:14.081Z,55.73
2023-09-14T10:21:46.221Z,58.68
2023-09-14T10:24:15.070Z,54.04
2023-09-14T10:26:44.987Z,56.85
2023-09-14T10:29:12.308Z,60.68
2023-09-14T10:31:47.707Z,57.55
2023-09-14T10:34:18.299Z,54.17
2023-09-14T10:36:48.582Z,59.17
2023-09-14T10:39:23.898Z,54.43
2023-09-14T10:41:51.022Z,57.41
2023-09-14T10:44:18.695Z,57.09
2023-09-14T10:46:53.768Z,59.54
2023-09-14T10:49:30.967Z,59.22
2023-09-14T10:51:58.478Z,57.69
2023-09-14T10:54:32.929Z,54.30
2023-09-14T10:57:15.687Z,53.66
2023-09-14T10:59:59.526Z,55.64
2023-09-14T11:02:49.386Z,53.59
2023-09-14T11:05:25.714Z,55.19
2023-09-14T11:10:31.525Z,56.44
2023-09-14T11:13:23.383Z,54.87
2023-09-14T11:16:22.429Z,57.84
2023-09-14T11:18:51.474Z,65.27
2023-09-14T11:21:34.204Z,60.07
2023-09-14T11:24:05.181Z,59.17
2023-09-14T11:26:41.787Z,58.75
2023-09-14T11:29:12.532Z,54.78
2023-09-14T11:31:59.625Z,54.43
2023-09-14T11:34:34.217Z,52.23
2023-09-14T11:37:08.873Z,57.12
2023-09-14T11:39:44.070Z,52.45
2023-09-14T11:42:16.054Z,53.28
2023-09-14T11:44:51.680Z,50.85
2023-09-14T11:47:27.363Z,49.56
2023-09-14T11:50:01.427Z,59.42
2023-09-14T11:52:33.034Z,59.19
2023-09-14T11:55:00.117Z,49.57
2023-09-14T11:57:30.290Z,47.41
2023-09-14T11:59:57.431Z,47.07
2023-09-14T12:02:24.936Z,47.43
2023-09-14T12:04:54.953Z,48.53
2023-09-14T12:07:25.030Z,48.14
2023-09-14T12:09:52.260Z,44.46
2023-09-14T12:12:31.416Z,46.16
2023-09-14T12:15:03.435Z,47.89
2023-09-14T12:17:31.902Z,51.58
2023-09-14T12:20:01.867Z,50.36
2023-09-14T12:22:33.478Z,50.66
2023-09-14T12:25:05.510Z,50.98
2023-09-14T12:27:35.731Z,56.01
2023-09-14T12:30:07.640Z,49.68
2023-09-14T12:32:36.748Z,45.93
2023-09-14T12:35:05.869Z,45.47
2023-09-14T12:37:35.496Z,45.39
2023-09-14T12:40:12.395Z,45.55
2023-09-14T12:42:44.183Z,43.59
2023-09-14T12:45:16.887Z,43.78
2023-09-14T12:47:47.515Z,43.17
2023-09-14T12:50:18.364Z,42.51
2023-09-14T12:52:47.962Z,47.33
2023-09-14T12:55:18.408Z,46.23
2023-09-14T12:57:51.434Z,46.47
2023-09-14T13:00:26.323Z,48.63
2023-09-14T13:02:55.579Z,42.97
2023-09-14T13:05:26.172Z,39.31
2023-09-14T13:07:56.885Z,39.05
2023-09-14T13:10:30.342Z,36.71
2023-09-14T13:13:11.648Z,37.87
2023-09-14T13:15:48.395Z,36.77
2023-09-14T13:18:19.031Z,33.23
2023-09-14T13:20:53.138Z,34.07
2023-09-14T13:23:21.837Z,35.19
2023-09-14T13:25:48.975Z,34.61
2023-09-14T13:28:16.691Z,37.08
2023-09-14T13:30:43.889Z,33.09
2023-09-14T13:33:11.194Z,34.21
2023-09-14T13:35:39.966Z,34.80
2023-09-14T13:38:07.049Z,31.53
2023-09-14T13:40:34.129Z,30.34
2023-09-14T13:43:09.013Z,29.78
2023-09-14T13:45:36.942Z,29.20
2023-09-14T13:48:04.957Z,37.49
2023-09-14T13:50:32.371Z,36.94
2023-09-14T13:52:59.773Z,35.61
2023-09-14T13:55:27.027Z,32.96
2023-09-14T13:57:54.122Z,32.49
2023-09-14T14:00:21.369Z,31.73
2023-09-14T14:02:52.138Z,31.36
2023-09-14T14:05:20.073Z,33.36
2023-09-14T14:07:47.429Z,34.38
2023-09-14T14:10:15.096Z,29.97
2023-09-14T14:12:42.225Z,32.26
2023-09-14T14:15:12.844Z,29.96
2023-09-14T14:17:40.939Z,32.65
2023-09-14T14:20:10.557Z,31.68
2023-09-14T14:22:38.842Z,33.94
2023-09-14T14:25:06.848Z,33.77
2023-09-14T14:27:36.879Z,30.91
2023-09-14T14:30:04.509Z,29.18
2023-09-14T14:32:31.787Z,31.40
2023-09-14T14:34:59.182Z,30.71
2023-09-14T14:37:26.393Z,32.57
2023-09-14T14:39:53.585Z,29.20
2023-09-14T14:42:22.622Z,29.15
2023-09-14T14:44:50.448Z,31.97
2023-09-14T14:47:18.768Z,28.84
2023-09-14T14:49:46.181Z,29.98
2023-09-14T14:52:14.034Z,32.73
2023-09-14T14:54:41.155Z,31.00
2023-09-14T14:57:08.333Z,30.89
2023-09-14T14:59:36.913Z,28.47
2023-09-14T15:02:04.288Z,29.01
2023-09-14T15:04:32.083Z,28.74
2023-09-14T15:06:59.878Z,29.31
2023-09-14T15:09:27.123Z,26.66
2023-09-14T15:11:56.241Z,29.95
2023-09-14T15:14:23.335Z,28.58
2023-09-14T15:16:50.608Z,27.25
2023-09-14T15:19:19.565Z,28.32
2023-09-14T15:21:48.571Z,29.42
2023-09-14T15:24:15.729Z,28.06
2023-09-14T15:26:42.840Z,30.52
2023-09-14T15:29:09.870Z,28.30
2023-09-14T15:31:37.398Z,29.36
2023-09-14T15:34:05.537Z,28.93
2023-09-14T15:36:33.616Z,27.25
2023-09-14T15:39:00.656Z,29.52
2023-09-14T15:41:27.701Z,27.85
2023-09-14T15:43:56.814Z,27.48
2023-09-14T15:46:27.941Z,27.06
2023-09-14T15:48:55.623Z,28.01
2023-09-14T15:51:24.974Z,26.91
2023-09-14T15:53:52.126Z,24.85
2023-09-14T15:56:19.546Z,25.78
2023-09-14T15:58:53.076Z,28.22
2023-09-14T16:01:23.930Z,28.53
2023-09-14T16:03:52.225Z,29.52
2023-09-14T16:06:20.490Z,29.43
2023-09-14T16:08:57.478Z,26.05
2023-09-14T16:11:25.104Z,28.54
2023-09-14T16:13:56.076Z,28.23
2023-09-14T16:16:25.771Z,29.01
2023-09-14T16:19:00.032Z,30.32
2023-09-14T16:21:42.777Z,30.20
2023-09-14T16:24:13.735Z,29.89
2023-09-14T16:26:42.851Z,30.29
2023-09-14T16:29:09.962Z,28.80
2023-09-14T16:31:37.163Z,28.16
2023-09-14T16:34:08.192Z,27.99
2023-09-14T16:36:36.120Z,29.88
2023-09-14T16:39:09.130Z,26.57
2023-09-14T16:41:40.268Z,28.54
2023-09-14T16:44:10.991Z,27.38
2023-09-14T16:46:43.003Z,28.27
2023-09-14T16:49:30.040Z,29.32
2023-09-14T16:51:59.577Z,29.65
2023-09-14T16:54:34.366Z,27.99
2023-09-14T16:57:05.000Z,30.03
2023-09-14T16:59:32.160Z,28.38
2023-09-14T17:02:02.079Z,28.28
2023-09-14T17:04:31.219Z,27.94
2023-09-14T17:07:03.218Z,29.69
2023-09-14T17:09:40.072Z,29.42
2023-09-14T17:12:07.808Z,31.51
2023-09-14T17:14:36.698Z,31.11
2023-09-14T17:17:04.921Z,31.30
2023-09-14T17:19:35.197Z,31.64
2023-09-14T17:22:06.466Z,31.29
2023-09-14T17:24:48.847Z,30.89
2023-09-14T17:27:16.546Z,29.82
2023-09-14T17:29:43.741Z,32.92
2023-09-14T17:32:12.050Z,33.77
2023-09-14T17:34:39.069Z,32.05
2023-09-14T17:37:06.652Z,33.16
2023-09-14T17:39:36.352Z,32.97
2023-09-14T17:42:04.856Z,34.18
2023-09-14T17:44:32.114Z,34.88
2023-09-14T17:46:59.453Z,35.04
2023-09-14T17:49:27.856Z,34.09
2023-09-14T17:51:55.660Z,34.14
2023-09-14T17:54:22.907Z,34.02
2023-09-14T17:56:50.961Z,33.44
2023-09-14T17:59:18.101Z,34.58
2023-09-14T18:01:46.283Z,31.62
2023-09-14T18:04:13.633Z,32.90
2023-09-14T18:06:41.581Z,32.20
2023-09-14T18:09:08.879Z,32.31
2023-09-14T18:11:35.912Z,33.36
2023-09-14T18:14:02.922Z,35.90
2023-09-14T18:16:32.199Z,34.07
2023-09-14T18:19:01.096Z,33.99
2023-09-14T18:21:28.181Z,33.87
2023-09-14T18:23:55.246Z,32.24
2023-09-14T18:26:24.617Z,31.70
2023-09-14T18:28:51.861Z,32.24
2023-09-14T18:31:18.940Z,33.61
2023-09-14T18:33:46.045Z,36.68
2023-09-14T18:36:14.678Z,36.08
2023-09-14T18:38:41.742Z,33.83
2023-09-14T18:41:09.355Z,32.86
2023-09-14T18:43:37.384Z,32.08
2023-09-14T18:46:05.238Z,31.67
2023-09-14T18:48:32.387Z,32.64
2023-09-14T18:51:04.459Z,33.18
2023-09-14T18:53:32.694Z,34.14
2023-09-14T18:56:00.750Z,34.88
2023-09-14T18:59:21.436Z,33.50
2023-09-14T19:01:15.016Z,30.78
2023-09-14T19:03:43.114Z,32.63
2023-09-14T19:06:10.280Z,32.62
2023-09-14T19:08:38.975Z,33.15
2023-09-14T19:11:07.301Z,31.69
2023-09-14T19:13:35.383Z,28.75
2023-09-14T19:16:03.302Z,30.71
2023-09-14T19:18:30.411Z,34.31
2023-09-14T19:20:57.418Z,33.58
2023-09-14T19:23:24.525Z,33.67
2023-09-14T19:25:55.788Z,30.78
2023-09-14T19:28:25.367Z,32.05
2023-09-14T19:30:52.639Z,30.48
2023-09-14T19:33:21.152Z,32.99
2023-09-14T19:35:55.096Z,33.71
2023-09-14T19:38:23.199Z,33.73
2023-09-14T19:40:52.054Z,34.37
2023-09-14T19:43:19.208Z,34.12
2023-09-14T19:45:46.388Z,33.68
2023-09-14T19:48:13.542Z,36.14
2023-09-14T19:50:40.678Z,35.29
2023-09-14T19:53:07.720Z,35.20
2023-09-14T19:55:34.799Z,33.39
2023-09-14T19:58:01.973Z,35.35
2023-09-14T20:00:29.083Z,37.41
2023-09-14T20:02:56.406Z,35.51
2023-09-14T20:05:25.943Z,34.95
2023-09-14T20:07:53.258Z,36.21
2023-09-14T20:10:21.650Z,34.85
2023-09-14T20:12:49.605Z,38.69
2023-09-14T20:15:18.389Z,37.80
2023-09-14T20:17:48.198Z,35.63
2023-09-14T20:20:16.585Z,39.07
2023-09-14T20:22:43.583Z,38.36
2023-09-14T20:25:10.847Z,37.60
2023-09-14T20:27:38.118Z,35.68
2023-09-14T20:30:09.923Z,36.69
2023-09-14T20:32:37.770Z,37.39
2023-09-14T20:35:06.326Z,36.30
2023-09-14T20:37:41.558Z,37.83
2023-09-14T20:40:11.840Z,34.83
2023-09-14T20:42:40.092Z,36.24
2023-09-14T20:45:13.477Z,33.46
2023-09-14T20:47:44.378Z,33.07
2023-09-14T20:50:15.303Z,36.01
2023-09-14T20:52:47.443Z,36.52
2023-09-14T20:55:15.363Z,33.70
2023-09-14T20:57:43.119Z,33.97
2023-09-14T21:00:13.187Z,35.55
2023-09-14T21:02:40.422Z,37.72
2023-09-14T21:05:09.770Z,35.65
2023-09-14T21:07:41.831Z,36.46
2023-09-14T21:10:11.130Z,37.50
2023-09-14T21:12:39.383Z,36.66
2023-09-14T21:15:07.080Z,34.97
2023-09-14T21:17:37.063Z,34.53
2023-09-14T21:20:04.509Z,34.67
2023-09-14T21:22:31.697Z,36.79
2023-09-14T21:25:00.576Z,38.06
2023-09-14T21:27:27.829Z,35.53
2023-09-14T21:29:54.909Z,37.21
2023-09-14T21:32:21.965Z,35.46
2023-09-14T21:34:49.047Z,34.65
2023-09-14T21:37:18.679Z,35.94
2023-09-14T21:39:45.792Z,37.39
2023-09-14T21:42:14.540Z,37.23
2023-09-14T21:44:41.575Z,38.22
2023-09-14T21:47:08.597Z,38.04
2023-09-14T21:49:42.030Z,35.96
2023-09-14T21:52:11.847Z,35.76
2023-09-14T21:54:40.837Z,38.95
2023-09-14T21:57:09.712Z,37.10
2023-09-14T21:59:43.794Z,38.21
2023-09-14T22:02:11.263Z,38.46
2023-09-14T22:04:38.493Z,37.91
2023-09-14T22:07:05.562Z,39.41
2023-09-14T22:09:35.433Z,38.76
2023-09-14T22:12:04.697Z,38.74
2023-09-14T22:14:31.751Z,38.15
2023-09-14T22:16:58.854Z,40.88
2023-09-14T22:19:30.569Z,39.73
2023-09-14T22:21:58.780Z,38.41
2023-09-14T22:24:26.488Z,40.70
2023-09-14T22:26:53.898Z,41.13
2023-09-14T22:29:21.127Z,38.69
2023-09-14T22:31:48.463Z,38.73
2023-09-14T22:34:16.155Z,38.25
2023-09-14T22:36:43.762Z,40.81
2023-09-14T22:39:11.700Z,38.08
2023-09-14T22:41:40.458Z,38.69
2023-09-14T22:44:08.164Z,40.82
2023-09-14T22:46:35.715Z,37.87
2023-09-14T22:49:02.911Z,39.43
2023-09-14T22:51:30.178Z,38.64
2023-09-14T22:53:59.502Z,39.04
2023-09-14T22:56:29.424Z,40.06
2023-09-14T22:58:56.632Z,38.67
2023-09-14T23:01:27.828Z,37.74
2023-09-14T23:03:57.353Z,36.89
2023-09-14T23:06:25.007Z,37.43
2023-09-14T23:08:52.161Z,35.79
2023-09-14T23:11:25.312Z,35.51
2023-09-14T23:13:52.576Z,37.93
2023-09-14T23:16:26.319Z,38.46
2023-09-14T23:18:54.969Z,38.02
2023-09-14T23:21:22.185Z,38.90
2023-09-14T23:23:50.364Z,39.14
2023-09-14T23:26:17.381Z,35.95
2023-09-14T23:28:44.392Z,38.52
2023-09-14T23:31:11.446Z,36.91
2023-09-14T23:33:38.536Z,38.41
2023-09-14T23:36:14.469Z,38.26
2023-09-14T23:38:42.380Z,36.16
2023-09-14T23:41:14.236Z,41.28
2023-09-14T23:43:44.608Z,39.02
2023-09-14T23:46:15.571Z,40.53
2023-09-14T23:48:42.675Z,40.35
2023-09-14T23:51:09.818Z,37.88
2023-09-14T23:53:37.202Z,39.89
2023-09-14T23:56:06.730Z,39.86
2023-09-14T23:58:33.799Z,39.27
